Time;durP1;ratioP1;P1;durP2;ratioP2;P2;SDS_P1;SDS_P2;PMS_P1;PMS_P2;Temp;Humidity;BMP_temperature;BMP_pressure;BME280_temperature;BME280_humidity;BME280_pressure;Samples;Min_cycle;Max_cycle;Signal;HPM_P1;HPM_P2
2021/10/20 00:01:40;;;;;;;;;8.00;8.00;;;;;20.14;50.94;101076.13;4959729;28;45596;-94
2021/10/20 00:04:20;;;;;;;;;6.75;6.75;;;;;20.11;50.93;101078.06;4968879;28;47124;-91
2021/10/20 00:06:46;;;;;;;;;7.75;7.75;;;;;20.03;51.04;101062.31;4965479;28;45496;-90
2021/10/20 00:09:11;;;;;;;;;5.00;5.00;;;;;20.07;51.43;101071.06;4969004;28;45468;-90
2021/10/20 00:11:37;;;;;;;;;6.00;6.00;;;;;20.03;51.51;101064.97;4965275;28;45198;-92
2021/10/20 00:14:04;;;;;;;;;8.33;8.33;;;;;20.04;51.09;101064.91;4957465;28;47238;-91
2021/10/20 00:16:29;;;;;;;;;7.00;6.67;;;;;20.03;51.31;101073.00;4968808;28;46046;-90
2021/10/20 00:18:55;;;;;;;;;7.67;7.00;;;;;20.03;51.60;101075.66;4978456;28;45376;-90
2021/10/20 00:21:27;;;;;;;;;6.67;6.67;;;;;19.97;51.58;101051.84;4967930;28;45496;-89
2021/10/20 00:23:53;;;;;;;;;8.00;8.00;;;;;19.96;51.49;101055.44;4948067;28;47180;-91
2021/10/20 00:26:19;;;;;;;;;8.00;7.67;;;;;19.99;52.06;101049.97;4962531;28;45393;-90
2021/10/20 00:28:44;;;;;;;;;7.00;7.00;;;;;19.96;51.63;101048.28;4958844;28;45437;-90
2021/10/20 00:31:10;;;;;;;;;7.00;7.00;;;;;19.92;52.35;101033.31;4969556;28;45463;-91
2021/10/20 00:33:35;;;;;;;;;7.33;7.33;;;;;19.92;52.19;101035.97;4949564;28;47599;-90
2021/10/20 00:36:01;;;;;;;;;6.67;6.67;;;;;19.91;51.96;101028.88;4949195;28;45338;-89
2021/10/20 00:38:26;;;;;;;;;8.00;7.00;;;;;19.90;52.27;101012.91;4965113;28;45326;-90
2021/10/20 00:40:52;;;;;;;;;7.00;6.00;;;;;19.91;52.34;101020.84;4986009;28;45336;-89
2021/10/20 00:43:22;;;;;;;;;11.00;10.00;;;;;19.90;52.58;101026.28;4985008;28;47217;-90
2021/10/20 00:45:49;;;;;;;;;7.67;7.00;;;;;19.86;53.11;101009.50;4972190;28;45235;-91
2021/10/20 00:48:15;;;;;;;;;10.00;9.67;;;;;19.89;53.16;101011.16;4983776;28;45480;-90
2021/10/20 00:50:42;;;;;;;;;10.00;10.00;;;;;19.82;53.01;100994.50;4955524;28;45456;-90
2021/10/20 00:53:08;;;;;;;;;8.00;6.00;;;;;19.81;53.30;101001.66;4972521;28;47020;-90
2021/10/20 00:55:34;;;;;;;;;7.33;6.33;;;;;19.88;53.11;101010.28;4961209;28;45791;-90
2021/10/20 00:58:00;;;;;;;;;8.67;6.67;;;;;19.90;53.00;101004.91;4963733;28;45376;-89
2021/10/20 01:00:26;;;;;;;;;7.67;7.67;;;;;19.86;53.27;100998.81;4952183;28;45311;-91
2021/10/20 01:02:54;;;;;;;;;9.67;5.33;;;;;19.88;53.30;101002.28;4964234;28;47166;-90
2021/10/20 01:05:19;;;;;;;;;7.00;7.00;;;;;19.83;53.55;100988.22;4948185;28;45396;-90
2021/10/20 01:07:48;;;;;;;;;6.67;5.33;;;;;19.82;53.55;100999.84;4959012;28;44809;-90
2021/10/20 01:10:14;;;;;;;;;7.33;7.33;;;;;19.90;53.53;101007.56;4970384;28;45307;-90
2021/10/20 01:12:43;;;;;;;;;9.33;9.33;;;;;19.90;53.08;101008.44;4958987;28;47391;-88
2021/10/20 01:15:19;;;;;;;;;13.33;11.33;;;;;19.84;53.66;100979.28;4967665;28;45547;-88
2021/10/20 01:17:46;;;;;;;;;8.67;8.00;;;;;19.86;53.52;100982.78;4955654;28;45381;-91
2021/10/20 01:20:12;;;;;;;;;10.50;8.75;;;;;19.80;53.58;100973.16;4965956;28;45420;-91
2021/10/20 01:22:38;;;;;;;;;6.67;6.67;;;;;19.80;53.90;100986.53;4962310;28;47335;-90
2021/10/20 01:25:04;;;;;;;;;8.67;7.33;;;;;19.76;53.65;100976.03;4964071;28;45248;-90
2021/10/20 01:27:30;;;;;;;;;8.67;7.67;;;;;19.78;53.97;100977.72;4983222;28;45239;-89
2021/10/20 01:29:58;;;;;;;;;9.00;9.00;;;;;19.70;54.18;100958.44;4959237;28;45943;-90
2021/10/20 01:32:26;;;;;;;;;6.33;6.33;;;;;19.76;53.90;100974.22;4966809;28;47404;-91
2021/10/20 01:34:53;;;;;;;;;5.67;5.00;;;;;19.70;54.02;100958.44;4959659;28;45507;-88
2021/10/20 01:37:20;;;;;;;;;9.25;7.75;;;;;19.73;53.61;100969.00;4977390;28;45268;-90
2021/10/20 01:39:46;;;;;;;;;9.00;9.00;;;;;19.64;54.18;100961.28;4950005;28;45260;-90
2021/10/20 01:42:11;;;;;;;;;8.00;8.00;;;;;19.64;53.96;100955.09;4947944;28;46070;-89
2021/10/20 01:44:37;;;;;;;;;8.00;7.00;;;;;19.60;54.21;100951.69;4955727;28;45276;-90
2021/10/20 01:47:04;;;;;;;;;10.00;9.33;;;;;19.61;54.31;100934.72;4970407;28;45203;-89
2021/10/20 01:49:32;;;;;;;;;6.67;5.67;;;;;19.60;54.67;100924.97;4956927;28;45770;-89
2021/10/20 01:51:57;;;;;;;;;10.00;7.00;;;;;19.61;54.66;100937.38;4966987;28;47104;-90
2021/10/20 01:54:23;;;;;;;;;10.00;9.33;;;;;19.53;54.85;100924.31;4983976;28;45357;-91
2021/10/20 01:56:49;;;;;;;;;7.00;7.00;;;;;19.54;54.88;100931.41;4968538;28;45235;-90
2021/10/20 01:59:15;;;;;;;;;9.00;9.00;;;;;19.46;54.79;100905.91;4946962;28;45466;-89
2021/10/20 02:01:41;;;;;;;;;9.25;9.25;;;;;19.50;55.10;100910.22;4948072;28;48219;-89
2021/10/20 02:04:14;;;;;;;;;12.00;11.00;;;;;19.44;54.93;100903.31;4966997;28;45299;-90
2021/10/20 02:06:44;;;;;;;;;10.00;9.67;;;;;19.44;55.59;100910.47;4983445;28;45283;-90
2021/10/20 02:09:11;;;;;;;;;8.00;8.00;;;;;19.43;55.62;100906.91;4974091;28;45530;-90
2021/10/20 02:11:38;;;;;;;;;10.67;10.00;;;;;19.38;55.44;100888.41;4966040;28;46173;-91
2021/10/20 02:14:06;;;;;;;;;9.00;9.00;;;;;19.37;55.74;100880.44;4974720;28;45219;-90
2021/10/20 02:16:31;;;;;;;;;10.00;7.67;;;;;19.32;55.78;100877.94;4959867;28;45241;-90
2021/10/20 02:18:57;;;;;;;;;10.00;9.00;;;;;19.35;56.21;100877.84;4956532;28;45251;-89
2021/10/20 02:21:23;;;;;;;;;7.00;7.00;;;;;19.34;55.90;100872.53;4952248;28;47024;-90
2021/10/20 02:23:49;;;;;;;;;11.25;8.00;;;;;19.27;55.97;100857.69;4974654;28;45659;-92
2021/10/20 02:26:14;;;;;;;;;9.50;9.50;;;;;19.29;56.74;100864.69;4960965;28;45449;-90
2021/10/20 02:28:40;;;;;;;;;11.75;10.25;;;;;19.25;56.43;100864.91;4948660;28;45449;-92
2021/10/20 02:31:05;;;;;;;;;9.00;8.50;;;;;19.28;56.44;100862.13;4949052;28;46945;-91
2021/10/20 02:33:30;;;;;;;;;12.00;11.00;;;;;19.29;56.57;100861.16;4951287;28;45418;-90
2021/10/20 02:35:56;;;;;;;;;4.50;4.50;;;;;19.26;56.55;100850.63;4962501;28;45318;-90
2021/10/20 02:38:22;;;;;;;;;12.00;12.00;;;;;19.26;56.55;100840.81;4979757;28;45533;-87
2021/10/20 02:40:47;;;;;;;;;9.33;9.33;;;;;19.26;56.72;100851.47;4980164;28;45172;-89
2021/10/20 02:43:13;;;;;;;;;11.00;10.25;;;;;19.22;56.85;100836.53;4968035;28;44797;-88
2021/10/20 02:45:39;;;;;;;;;9.33;9.00;;;;;19.22;56.61;100830.28;4982008;28;45179;-89
2021/10/20 02:48:05;;;;;;;;;10.67;9.67;;;;;19.26;56.47;100840.81;4981039;28;45222;-90
2021/10/20 02:50:30;;;;;;;;;9.00;8.00;;;;;19.24;56.54;100831.97;4950914;28;47237;-89
2021/10/20 02:52:57;;;;;;;;;14.50;13.25;;;;;19.19;56.67;100828.59;4966329;28;45375;-90
2021/10/20 02:55:23;;;;;;;;;8.00;8.00;;;;;19.15;56.66;100822.53;4966072;28;45262;-89
2021/10/20 02:57:49;;;;;;;;;11.00;11.00;;;;;19.17;57.03;100836.69;4972607;28;45249;-89
2021/10/20 03:00:16;;;;;;;;;11.33;9.33;;;;;19.16;57.09;100831.41;4968769;28;46306;-91
2021/10/20 03:02:41;;;;;;;;;13.00;10.33;;;;;19.17;56.71;100835.81;4975719;28;45346;-90
2021/10/20 03:05:08;;;;;;;;;8.33;7.00;;;;;19.20;56.73;100845.53;4966593;28;45415;-91
2021/10/20 03:07:34;;;;;;;;;11.00;11.00;;;;;19.17;57.01;100833.16;4965044;28;45441;-90
2021/10/20 03:09:59;;;;;;;;;10.00;9.00;;;;;19.18;57.12;100840.22;4973717;28;45457;-90
2021/10/20 03:12:25;;;;;;;;;13.75;11.25;;;;;19.17;56.69;100862.50;4965578;28;45247;-89
2021/10/20 03:14:50;;;;;;;;;11.25;10.00;;;;;19.11;56.84;100850.28;4964357;28;45366;-90
2021/10/20 03:17:16;;;;;;;;;10.50;10.00;;;;;19.13;57.30;100852.88;4954062;28;45615;-89
2021/10/20 03:19:43;;;;;;;;;11.00;10.00;;;;;19.10;56.96;100861.00;4969951;28;45280;-89
2021/10/20 03:22:10;;;;;;;;;9.33;9.00;;;;;19.04;57.17;100851.41;4974015;28;45448;-90
2021/10/20 03:24:36;;;;;;;;;9.50;9.50;;;;;18.99;57.61;100856.06;4949715;28;45347;-90
2021/10/20 03:27:01;;;;;;;;;9.75;9.75;;;;;19.00;57.03;100836.44;4974298;28;44791;-91
2021/10/20 03:29:27;;;;;;;;;7.50;7.50;;;;;19.03;57.51;100823.00;4972597;28;47064;-88
2021/10/20 03:31:52;;;;;;;;;9.00;9.00;;;;;19.00;57.58;100806.22;4983707;28;45903;-90
2021/10/20 03:34:18;;;;;;;;;11.00;10.00;;;;;18.98;57.54;100806.31;4961154;28;45529;-91
2021/10/20 03:36:43;;;;;;;;;12.50;11.00;;;;;18.98;57.69;100803.63;4946815;28;45500;-89
2021/10/20 03:39:09;;;;;;;;;11.67;11.00;;;;;18.95;57.37;100796.59;4967655;28;47055;-91
2021/10/20 03:41:35;;;;;;;;;9.00;9.00;;;;;18.99;57.89;100816.03;4972351;28;45937;-89
2021/10/20 03:44:00;;;;;;;;;11.00;11.00;;;;;18.90;57.98;100806.59;4981033;28;45258;-88
2021/10/20 03:46:26;;;;;;;;;11.00;10.00;;;;;18.92;57.94;100811.84;4966601;28;44829;-88
2021/10/20 03:48:51;;;;;;;;;11.75;11.75;;;;;18.94;57.69;100810.00;4978694;28;47130;-90
2021/10/20 03:51:17;;;;;;;;;11.25;9.25;;;;;18.93;57.64;100818.94;4958538;28;45475;-90
2021/10/20 03:53:42;;;;;;;;;11.50;11.25;;;;;18.90;58.05;100803.91;4972825;28;45414;-90
2021/10/20 03:56:08;;;;;;;;;11.00;11.00;;;;;18.87;58.19;100792.47;4985741;28;45507;-90
2021/10/20 03:58:33;;;;;;;;;10.67;10.67;;;;;18.87;58.48;100798.69;4967652;28;47368;-89
2021/10/20 04:00:58;;;;;;;;;12.50;8.25;;;;;18.90;57.85;100803.91;4967193;28;45842;-89
2021/10/20 04:03:24;;;;;;;;;10.33;8.67;;;;;18.85;58.31;100789.00;4964646;28;45259;-90
2021/10/20 04:05:50;;;;;;;;;11.00;9.67;;;;;18.87;58.67;100780.03;4987773;28;44830;-90
2021/10/20 04:08:15;;;;;;;;;9.33;9.33;;;;;18.85;57.97;100749.84;4969156;28;47172;-90
2021/10/20 04:10:41;;;;;;;;;11.75;11.75;;;;;18.88;58.47;100771.06;4971484;28;45557;-90
2021/10/20 04:13:06;;;;;;;;;10.00;8.33;;;;;18.86;57.98;100764.94;4961837;28;45496;-88
2021/10/20 04:15:33;;;;;;;;;13.75;13.25;;;;;18.81;58.04;100763.34;4948314;28;45676;-90
2021/10/20 04:17:58;;;;;;;;;7.67;7.00;;;;;18.87;58.32;100772.03;4960381;28;47211;-90
2021/10/20 04:20:25;;;;;;;;;10.00;10.00;;;;;18.82;58.61;100752.66;4954738;28;45467;-90
2021/10/20 04:22:51;;;;;;;;;12.00;11.25;;;;;18.88;58.38;100776.41;4969286;28;45232;-89
2021/10/20 04:25:18;;;;;;;;;10.33;10.33;;;;;18.83;58.50;100767.72;4948484;28;45531;-91
2021/10/20 04:27:45;;;;;;;;;12.00;10.67;;;;;18.79;58.38;100759.88;4969185;28;47232;-89
2021/10/20 04:30:12;;;;;;;;;10.67;8.67;;;;;18.84;58.56;100763.25;4976194;28;45323;-89
2021/10/20 04:32:38;;;;;;;;;12.25;10.75;;;;;18.79;58.44;100758.09;4988392;28;45440;-90
2021/10/20 04:35:05;;;;;;;;;11.75;9.25;;;;;18.80;58.37;100756.28;4965247;28;45427;-90
2021/10/20 04:37:31;;;;;;;;;13.00;13.00;;;;;18.73;58.50;100768.94;4970293;28;46313;-89
2021/10/20 04:39:58;;;;;;;;;12.00;10.00;;;;;18.72;59.10;100762.75;4949597;28;45684;-90
2021/10/20 04:42:26;;;;;;;;;11.67;10.67;;;;;18.72;58.93;100761.88;4959860;28;45528;-91
2021/10/20 04:44:52;;;;;;;;;17.25;13.00;;;;;18.69;59.19;100767.34;4964605;28;45501;-90
2021/10/20 04:47:18;;;;;;;;;11.67;7.33;;;;;18.71;59.12;100777.03;4962163;28;47202;-90
2021/10/20 04:49:44;;;;;;;;;9.25;9.25;;;;;18.67;59.56;100779.84;4967213;28;45239;-90
2021/10/20 04:52:10;;;;;;;;;12.67;12.67;;;;;18.65;59.40;100784.34;4952882;28;45486;-90
2021/10/20 04:54:36;;;;;;;;;13.00;10.67;;;;;18.63;59.15;100787.09;4973427;28;45246;-90
2021/10/20 04:57:02;;;;;;;;;11.25;6.50;;;;;18.57;59.65;100779.31;4946738;28;47031;-90
2021/10/20 04:59:31;;;;;;;;;9.00;9.00;;;;;18.52;59.91;100797.25;4956950;28;45357;-91
2021/10/20 05:02:03;;;;;;;;;10.25;9.50;;;;;18.54;60.16;100795.41;4949315;28;45388;-91
2021/10/20 05:04:29;;;;;;;;;12.25;11.25;;;;;18.49;59.69;100778.72;4946548;28;45473;-91
2021/10/20 05:06:55;;;;;;;;;9.67;9.67;;;;;18.52;59.53;100790.16;4947380;28;47075;-90
2021/10/20 05:09:20;;;;;;;;;12.00;9.00;;;;;18.50;59.88;100772.47;4956052;28;45506;-89
2021/10/20 05:11:46;;;;;;;;;12.00;11.00;;;;;18.46;59.50;100770.81;4954180;28;45357;-91
2021/10/20 05:14:11;;;;;;;;;12.33;11.67;;;;;18.39;59.35;100764.84;4962490;28;45668;-91
2021/10/20 05:16:37;;;;;;;;;11.33;10.67;;;;;18.45;59.81;100758.44;4963291;28;48193;-91
2021/10/20 05:19:03;;;;;;;;;9.25;9.00;;;;;18.40;60.14;100768.38;4984649;28;44823;-90
2021/10/20 05:21:28;;;;;;;;;11.75;11.00;;;;;18.41;59.90;100749.66;4953666;28;45341;-91
2021/10/20 05:23:54;;;;;;;;;15.33;12.00;;;;;18.34;59.83;100720.63;4956672;28;45188;-90
2021/10/20 05:26:20;;;;;;;;;12.50;11.50;;;;;18.37;59.92;100737.38;4960894;28;48024;-90
2021/10/20 05:28:45;;;;;;;;;11.00;11.00;;;;;18.40;60.41;100737.25;4947237;28;45552;-90
2021/10/20 05:31:11;;;;;;;;;13.50;12.75;;;;;18.32;60.46;100728.69;4964323;28;45230;-90
2021/10/20 05:33:37;;;;;;;;;14.25;12.50;;;;;18.30;60.34;100722.53;4946854;28;45743;-90
2021/10/20 05:36:04;;;;;;;;;11.00;9.50;;;;;18.36;60.74;100713.44;4975776;28;47470;-91
2021/10/20 05:38:30;;;;;;;;;10.50;10.50;;;;;18.39;60.39;100706.22;4959528;28;45387;-90
2021/10/20 05:40:55;;;;;;;;;13.00;11.50;;;;;18.38;60.47;100711.59;4979276;28;45384;-90
2021/10/20 05:43:21;;;;;;;;;12.00;10.75;;;;;18.32;60.85;100683.38;4956492;28;45405;-90
2021/10/20 05:45:47;;;;;;;;;12.50;11.75;;;;;18.37;61.19;100689.41;4968438;28;47937;-90
2021/10/20 05:48:16;;;;;;;;;11.00;11.00;;;;;18.28;60.65;100693.28;4978183;28;44772;-90
2021/10/20 05:50:43;;;;;;;;;11.50;10.25;;;;;18.35;60.92;100687.72;4970214;28;44671;-90
2021/10/20 05:53:08;;;;;;;;;11.00;10.00;;;;;18.35;61.05;100685.91;4950639;28;45186;-89
2021/10/20 05:55:33;;;;;;;;;10.25;7.75;;;;;18.38;60.67;100700.94;4949408;28;47196;-90
2021/10/20 05:57:59;;;;;;;;;15.25;13.25;;;;;18.29;60.71;100695.00;4965027;28;45315;-91
2021/10/20 06:00:46;;;;;;;;;11.00;9.25;;;;;18.37;60.63;100710.72;4948456;28;45506;-91
2021/10/20 06:03:12;;;;;;;;;10.25;10.25;;;;;18.33;60.50;100690.44;4960266;28;45535;-92
2021/10/20 06:05:37;;;;;;;;;10.75;9.50;;;;;18.30;61.14;100686.06;4946596;28;47170;-90
2021/10/20 06:08:03;;;;;;;;;12.75;10.00;;;;;18.38;60.74;100695.59;4959763;28;45405;-92
2021/10/20 06:10:29;;;;;;;;;14.00;11.00;;;;;18.37;60.75;100704.53;4971169;28;45506;-86
2021/10/20 06:12:55;;;;;;;;;12.50;10.50;;;;;18.35;60.58;100685.06;4944350;28;45828;-89
2021/10/20 06:15:22;;;;;;;;;10.75;9.75;;;;;18.38;60.77;100691.13;4963921;28;48081;-90
2021/10/20 06:17:48;;;;;;;;;14.00;12.25;;;;;18.29;60.67;100657.69;4969039;28;45232;-89
2021/10/20 06:20:14;;;;;;;;;11.50;11.25;;;;;18.33;60.91;100661.09;4965141;28;45298;-89
2021/10/20 06:22:41;;;;;;;;;11.75;10.25;;;;;18.33;61.08;100645.13;4950858;28;45541;-87
2021/10/20 06:25:08;;;;;;;;;9.50;9.50;;;;;18.32;61.29;100635.41;4946025;28;47339;-90
2021/10/20 06:27:34;;;;;;;;;8.67;8.67;;;;;18.28;61.48;100629.31;4959782;28;44661;-89
2021/10/20 06:29:59;;;;;;;;;13.25;12.00;;;;;18.35;61.62;100655.72;4971133;28;45163;-88
2021/10/20 06:32:24;;;;;;;;;10.75;10.00;;;;;18.28;62.12;100642.66;4972256;28;45669;-88
2021/10/20 06:34:50;;;;;;;;;9.75;9.75;;;;;18.23;62.24;100625.94;4974187;28;45158;-85
2021/10/20 06:37:15;;;;;;;;;12.00;12.00;;;;;18.26;62.50;100640.97;4957243;28;45252;-89
2021/10/20 06:39:41;;;;;;;;;14.00;12.00;;;;;18.19;63.03;100632.31;4963278;28;45303;-87
2021/10/20 06:42:06;;;;;;;;;13.00;10.50;;;;;18.25;63.34;100639.19;4980667;28;45235;-90
2021/10/20 06:44:32;;;;;;;;;13.00;12.00;;;;;18.16;63.27;100615.56;4957113;28;47166;-87
2021/10/20 06:46:57;;;;;;;;;13.00;12.00;;;;;18.18;63.49;100611.06;4959942;28;45250;-88
2021/10/20 06:49:23;;;;;;;;;13.25;13.00;;;;;18.05;64.00;100624.81;4951157;28;45267;-89
2021/10/20 06:51:48;;;;;;;;;11.50;10.25;;;;;18.04;63.73;100607.13;4964349;28;45244;-88
2021/10/20 06:54:20;;;;;;;;;13.25;13.00;;;;;18.08;63.66;100619.38;4974097;28;45853;-89
2021/10/20 06:56:50;;;;;;;;;13.50;12.50;;;;;17.96;63.95;100587.88;4958112;28;45309;-89
2021/10/20 06:59:15;;;;;;;;;17.75;15.50;;;;;18.01;64.53;100614.34;4943597;28;45420;-89
2021/10/20 07:01:41;;;;;;;;;11.50;11.00;;;;;18.00;64.66;100599.28;4957041;28;45854;-90
2021/10/20 07:04:08;;;;;;;;;13.25;13.25;;;;;17.99;64.28;100606.41;4975150;28;45498;-89
2021/10/20 07:06:34;;;;;;;;;15.75;14.00;;;;;17.96;64.42;100600.31;4943361;28;45411;-85
2021/10/20 07:08:59;;;;;;;;;11.25;10.25;;;;;17.99;64.71;100602.84;4965879;28;45308;-86
2021/10/20 07:11:25;;;;;;;;;11.25;11.25;;;;;18.01;64.10;100619.66;4975202;28;45484;-89
2021/10/20 07:13:50;;;;;;;;;13.50;11.50;;;;;17.96;64.50;100614.53;4962918;28;47044;-87
2021/10/20 07:20:03;;;;;;;;;10.00;9.00;;;;;17.96;64.42;100616.28;4866328;29;45291;-88
2021/10/20 07:22:39;;;;;;;;;;;;;;;;;;;;;
2021/10/20 07:25:19;;;;;;;;;13.25;11.75;;;;;17.89;65.20;100614.78;4938955;28;75226;-89
2021/10/20 07:27:49;;;;;;;;;10.00;10.00;;;;;17.85;65.56;100604.25;4962194;28;45308;-88
2021/10/20 07:30:26;;;;;;;;;;;;;;;;;;;;;
2021/10/20 07:32:58;;;;;;;;;13.75;12.75;;;;;17.90;65.46;100613.84;4959695;28;72656;-88
2021/10/20 07:35:23;;;;;;;;;16.00;15.00;;;;;17.92;65.51;100607.56;4981605;28;48379;-90
2021/10/20 07:37:53;;;;;;;;;13.00;12.00;;;;;17.96;65.17;100617.19;4954850;28;45815;-88
2021/10/20 07:40:19;;;;;;;;;12.00;11.25;;;;;17.90;65.89;100600.53;4952166;28;45299;-89
2021/10/20 07:42:45;;;;;;;;;14.00;13.00;;;;;17.93;65.34;100632.38;4956764;28;45601;-88
2021/10/20 07:45:19;;;;;;;;;14.75;13.75;;;;;17.94;66.16;100615.50;4954953;28;46896;-90
2021/10/20 07:47:48;;;;;;;;;11.00;11.00;;;;;17.98;65.85;100652.59;4975298;28;45245;-88
2021/10/20 07:50:16;;;;;;;;;15.25;14.50;;;;;17.96;65.94;100638.50;4962171;28;45616;-87
2021/10/20 07:52:43;;;;;;;;;15.00;13.25;;;;;17.94;65.83;100653.66;4950193;28;45525;-87
2021/10/20 07:55:15;;;;;;;;;14.25;13.75;;;;;18.00;66.21;100668.56;4950719;28;45541;-86
2021/10/20 07:57:41;;;;;;;;;16.50;14.25;;;;;17.96;66.28;100673.13;4966041;28;45445;-89
2021/10/20 08:00:08;;;;;;;;;15.50;13.00;;;;;18.03;66.30;100676.44;4951431;28;45433;-88
2021/10/20 08:02:33;;;;;;;;;13.50;12.50;;;;;17.96;66.08;100658.91;4957445;28;45412;-88
2021/10/20 08:04:59;;;;;;;;;13.50;12.25;;;;;17.99;66.58;100662.34;4944698;28;46895;-87
2021/10/20 08:07:25;;;;;;;;;6.25;5.25;;;;;18.04;66.33;100670.16;4972265;28;45394;-89
2021/10/20 08:09:50;;;;;;;;;13.50;12.00;;;;;17.97;66.99;100652.69;4957587;28;45482;-88
2021/10/20 08:12:19;;;;;;;;;10.75;10.25;;;;;18.05;66.87;100662.13;4966953;28;45263;-83
2021/10/20 08:14:45;;;;;;;;;18.00;12.00;;;;;18.09;66.89;100657.53;4965554;28;47009;-87
2021/10/20 08:21:21;;;;;;;;;15.25;15.00;;;;;18.16;66.90;100679.53;4845002;29;45512;-87
2021/10/20 10:13:05;;;;;;;;;14.00;13.00;;;;;19.37;65.35;100640.16;4957725;28;45452;-85
2021/10/20 10:26:38;;;;;;;;;;;;;;;;;;;;;
2021/10/20 16:52:54;;;;;;;;;;;;;;;;;;;;;
2021/10/20 17:00:15;;;;;;;;;;;;;;;;;;;;;
2021/10/20 17:18:01;;;;;;;;;6.33;6.00;;;;;20.45;58.38;99927.69;4702889;30;46476;-82
2021/10/20 17:25:07;;;;;;;;;;;;;;;;;;;;;
2021/10/20 17:28:06;;;;;;;;;;;;;;;;;;;;;
2021/10/20 17:42:33;;;;;;;;;2.67;2.33;;;;;20.16;59.20;99879.44;4614380;30;45534;-83
2021/10/20 17:45:00;;;;;;;;;6.00;6.00;;;;;20.16;59.51;99879.44;4721682;29;45635;-82
2021/10/20 17:48:07;;;;;;;;;;;;;;;;;;;;;
2021/10/20 17:54:01;;;;;;;;;;;;;;;;;;;;;
2021/10/20 17:56:41;;;;;;;;;6.00;6.00;;;;;20.03;59.65;99855.22;4917678;28;72726;-83
2021/10/20 18:03:16;;;;;;;;;;;;;;;;;;;;;
2021/10/20 18:05:58;;;;;;;;;;;;;;;;;;;;;
2021/10/20 18:08:42;;;;;;;;;;;;;;;;;;;;;
2021/10/20 18:19:06;;;;;;;;;;;;;;;;;;;;;
2021/10/20 18:21:56;;;;;;;;;7.00;6.00;;;;;19.88;61.04;99796.44;4805066;29;71881;-82
2021/10/20 18:25:03;;;;;;;;;;;;;;;;;;;;;
2021/10/20 18:27:41;;;;;;;;;;;;;;;;;;;;;
2021/10/20 18:30:18;;;;;;;;;;;;;;;;;;;;;
2021/10/20 18:32:53;;;;;;;;;8.33;6.33;;;;;19.70;61.49;99772.53;4881116;29;73249;-82
2021/10/20 18:35:53;;;;;;;;;5.00;5.00;;;;;19.69;61.51;99759.25;4907268;28;45645;-82
2021/10/20 18:38:32;;;;;;;;;;;;;;;;;;;;;
2021/10/20 18:58:46;;;;;;;;;6.33;5.67;;;;;19.43;62.04;99717.97;4807292;29;45588;-86
2021/10/20 19:13:07;;;;;;;;;6.00;5.00;;;;;19.38;61.79;99671.06;4554492;31;45550;-84
2021/10/20 19:15:51;;;;;;;;;;;;;;;;;;;;;
2021/10/20 19:18:47;;;;;;;;;;;;;;;;;;;;;
2021/10/20 19:22:06;;;;;;;;;6.50;4.50;;;;;19.37;61.20;99631.09;4899466;28;68009;-84
2021/10/20 19:24:41;;;;;;;;;4.00;4.00;;;;;19.30;61.71;99630.63;4913870;28;45554;-84
2021/10/20 19:27:13;;;;;;;;;7.00;6.00;;;;;19.35;61.70;99625.88;4920054;28;47478;-84
2021/10/20 19:29:53;;;;;;;;;8.00;6.67;;;;;19.27;61.66;99593.44;4921149;28;45536;-84
2021/10/20 19:32:25;;;;;;;;;8.67;7.67;;;;;19.33;61.70;99617.09;4925501;28;45563;-84
2021/10/20 19:39:46;;;;;;;;;;;;;;;;;;;;;
2021/10/20 19:57:42;;;;;;;;;;;;;;;;;;;;;
2021/10/20 20:00:13;;;;;;;;;5.00;5.00;;;;;19.09;59.71;99464.63;4779855;29;45712;-84
2021/10/20 20:05:47;;;;;;;;;5.67;3.67;;;;;19.14;60.49;99469.69;4837396;29;45554;-84
2021/10/20 20:08:15;;;;;;;;;4.67;4.00;;;;;19.11;60.03;99480.53;4842364;29;45622;-83
2021/10/20 20:10:52;;;;;;;;;3.33;3.33;;;;;19.11;59.86;99430.72;4828694;29;45475;-83
2021/10/20 20:17:32;;;;;;;;;4.00;3.00;;;;;19.15;59.10;99407.38;4840731;29;46922;-85
2021/10/20 20:20:10;;;;;;;;;;;;;;;;;;;;;
2021/10/20 20:23:09;;;;;;;;;;;;;;;;;;;;;
2021/10/20 20:26:30;;;;;;;;;;;;;;;;;;;;;
2021/10/20 20:32:42;;;;;;;;;1.00;1.00;;;;;19.07;56.94;99348.28;4837901;29;45718;-84
2021/10/20 20:35:52;;;;;;;;;3.00;2.00;;;;;19.03;57.10;99328.06;4914542;28;45787;-83
2021/10/20 20:42:00;;;;;;;;;;;;;;;;;;;;;
2021/10/20 20:44:31;;;;;;;;;1.67;1.67;;;;;19.06;58.13;99315.44;4913728;28;71636;-83
2021/10/20 20:47:58;;;;;;;;;;;;;;;;;;;;;
2021/10/20 20:54:58;;;;;;;;;;;;;;;;;;;;;
2021/10/20 20:57:27;;;;;;;;;3.00;1.67;;;;;18.78;61.29;99320.72;4889894;28;74498;-84
2021/10/20 21:00:27;;;;;;;;;3.00;2.67;;;;;18.68;62.47;99347.91;4952341;28;45662;-83
2021/10/20 21:03:21;;;;;;;;;1.33;1.33;;;;;18.46;64.65;99441.59;4914441;28;45942;-83
2021/10/20 21:05:49;;;;;;;;;2.00;1.33;;;;;18.23;65.39;99421.59;4937985;28;46516;-82
2021/10/20 21:08:40;;;;;;;;;0.67;0.00;;;;;18.06;64.33;99451.81;4922299;28;45493;-84
2021/10/20 21:11:12;;;;;;;;;3.00;1.00;;;;;17.81;64.54;99395.56;4929669;28;45404;-83
2021/10/20 21:13:45;;;;;;;;;1.00;1.00;;;;;17.59;64.84;99369.22;4940357;28;45468;-83
2021/10/20 21:16:10;;;;;;;;;0.67;0.67;;;;;17.56;64.73;99377.34;4941329;28;45804;-83
2021/10/20 21:18:36;;;;;;;;;0.00;0.00;;;;;17.56;65.12;99393.31;4936734;28;45478;-87
2021/10/20 21:21:01;;;;;;;;;0.00;0.00;;;;;17.47;65.25;99408.00;4942608;28;45422;-87
2021/10/20 21:23:42;;;;;;;;;0.00;0.00;;;;;17.28;64.39;99388.63;4922527;28;45707;-82
2021/10/20 21:26:11;;;;;;;;;2.00;0.00;;;;;17.23;64.67;99391.53;4939148;28;46180;-83
2021/10/20 21:32:45;;;;;;;;;;;;;;;;;;;;;
2021/10/20 21:35:18;;;;;;;;;1.00;0.00;;;;;16.72;62.07;99388.81;4901674;29;73305;-86
2021/10/20 21:38:28;;;;;;;;;0.67;0.67;;;;;16.56;61.35;99394.97;4939578;28;45796;-83
2021/10/20 21:41:07;;;;;;;;;;;;;;;;;;;;;
2021/10/20 21:43:41;;;;;;;;;0.00;0.00;;;;;16.32;60.73;99427.97;4936169;28;68010;-84
2021/10/20 21:53:18;;;;;;;;;0.33;0.33;;;;;15.93;59.99;99424.56;4941473;28;45386;-85
2021/10/20 21:56:02;;;;;;;;;1.00;1.00;;;;;15.72;60.18;99418.50;4937771;28;45341;-84
2021/10/20 21:58:40;;;;;;;;;0.00;0.00;;;;;15.57;60.01;99410.25;4925446;28;46178;-83
2021/10/20 22:01:28;;;;;;;;;;;;;;;;;;;;;
2021/10/20 22:04:04;;;;;;;;;;;;;;;;;;;;;
2021/10/20 22:06:43;;;;;;;;;0.67;0.00;;;;;15.42;60.64;99397.69;4929124;28;69144;-85
2021/10/20 22:09:18;;;;;;;;;;;;;;;;;;;;;
2021/10/20 22:11:44;;;;;;;;;1.00;1.00;;;;;15.40;60.18;99394.28;4930516;28;74266;-84
2021/10/20 22:14:16;;;;;;;;;1.00;1.00;;;;;15.38;59.84;99426.16;4920711;28;45490;-84
2021/10/20 22:16:49;;;;;;;;;1.00;1.00;;;;;15.29;60.07;99389.44;4941324;28;45379;-84
2021/10/20 22:19:18;;;;;;;;;1.00;1.00;;;;;15.34;60.28;99399.81;4956542;28;45460;-84
2021/10/20 22:21:46;;;;;;;;;1.00;0.00;;;;;15.32;60.74;99386.66;4956916;28;47026;-84
2021/10/20 22:25:03;;;;;;;;;2.00;1.00;;;;;15.28;60.68;99378.91;4920707;28;45537;-84
2021/10/20 22:27:38;;;;;;;;;0.33;0.33;;;;;15.39;60.58;99396.03;4935237;28;45600;-84
2021/10/20 22:38:16;;;;;;;;;;;;;;;;;;;;;
2021/10/20 22:44:32;;;;;;;;;0.00;0.00;;;;;15.14;59.33;99347.72;4800359;29;45508;-85
2021/10/20 22:57:49;;;;;;;;;;;;;;;;;;;;;
2021/10/20 23:17:58;;;;;;;;;2.33;1.00;;;;;15.22;56.40;99277.50;4670903;30;45554;-85
2021/10/20 23:27:51;;;;;;;;;2.00;2.00;;;;;15.24;55.52;99326.97;4683735;30;45583;-86
